Flight Track Log - Related Links

Times and Time Zones

All times are in EDT time to prevent confusion due to time zone crossing. See the EGF4174 flight status page for this flight to view local times or setup timezone preferences in your user account.

Time Position Orientation Groundspeed Altitude Reporting Facility
EDT Latitude Longitude Course Direction KTS MPH feet Rate Location/Type
Mon 05:01:59 PM 43.1092 -76.0836 286° West 163 188 1,200  Level Boston Center
Mon 05:03:06 PM 43.1397 -76.0369 48° Northeast 218 251 3,100 1,794 Climbing Boston Center
Mon 05:04:00 PM 43.1897 -76.4397 324° Northwest  Level FlightAware Approximate
Mon 05:05:00 PM 43.2080 -76.5559 281° West  Level FlightAware Approximate
Mon 05:05:33 PM 43.1561 -76.2369 276° West 236 272 7,600  Level Cleveland Center
Mon 05:06:00 PM 43.2296 -76.6766 286° West  Level FlightAware Approximate
Mon 05:06:33 PM 43.1533 -76.3369 268° West 256 295 9,600  Level Cleveland Center
Mon 05:07:00 PM 43.2552 -76.7961 286° West  Level FlightAware Approximate
Mon 05:07:33 PM 43.1511 -76.4450 268° West 271 312 11,200  Level Cleveland Center
Mon 05:08:33 PM 43.1511 -76.5619 270° West 292 336 12,500 1,350 Climbing Cleveland Center
Mon 05:09:33 PM 43.1511 -76.6814 270° West 312 359 13,900 1,450 Climbing Cleveland Center
Mon 05:10:33 PM 43.1489 -76.8097 269° West 325 374 15,400 1,500 Climbing Cleveland Center
Mon 05:11:33 PM 43.1489 -76.9350 270° West 332 382 16,900 1,450 Climbing Cleveland Center
Mon 05:12:33 PM 43.1467 -77.0631 269° West 332 382 18,300 1,450 Climbing Cleveland Center
Mon 05:13:33 PM 43.1461 -77.1883 270° West 332 382 19,800 1,450 Climbing Cleveland Center
Mon 05:14:33 PM 43.1456 -77.3164 270° West 332 382 21,200 1,450 Climbing Cleveland Center
Mon 05:15:33 PM 43.1431 -77.4503 269° West 344 396 22,700 1,500 Climbing Cleveland Center
Mon 05:16:33 PM 43.1403 -77.5786 268° West 349 402 24,200 1,500 Climbing Cleveland Center
Mon 05:17:33 PM 43.1394 -77.7094 270° West 349 402 25,700 1,350 Climbing Cleveland Center
Mon 05:18:33 PM 43.1383 -77.8406 269° West 349 402 26,900 1,200 Climbing Cleveland Center
Mon 05:19:33 PM 43.1353 -77.9717 268° West 349 402 28,100 1,200 Climbing Cleveland Center
Mon 05:20:33 PM 43.1339 -78.0997 269° West 349 402 29,300 1,150 Climbing Cleveland Center
Mon 05:21:33 PM 43.1303 -78.2306 268° West 349 402 30,400 1,100 Climbing Cleveland Center
Mon 05:22:33 PM 43.1286 -78.3617 269° West 349 402 31,500 1,100 Climbing Cleveland Center
Mon 05:23:33 PM 43.1272 -78.4981 269° West 349 402 32,600 1,100 Climbing Cleveland Center
Mon 05:24:33 PM 43.1231 -78.6292 268° West 349 402 33,700 1,050 Climbing Cleveland Center
Mon 05:25:33 PM 43.1211 -78.7600 269° West 349 402 34,700 950 Climbing Cleveland Center
Mon 05:26:33 PM 43.1189 -78.8939 269° West 349 402 35,600 650 Climbing Cleveland Center
Mon 05:27:33 PM 43.1144 -79.0247 267° West 349 402 36,000 200 Climbing Cleveland Center
Mon 05:28:33 PM 43.1100 -79.1669 268° West 354 407 36,000  Level Cleveland Center
Mon 05:29:33 PM 43.1075 -79.3092 269° West 366 421 36,000  Level Cleveland Center
Mon 05:30:37 PM 43.0833 -79.4667 258° West 400 460 36,000  Level Toronto Center
Mon 05:31:37 PM 43.0833 -79.6167 270° West 400 460 36,000  Level Toronto Center
Mon 05:32:37 PM 43.0833 -79.7667 270° West 400 460 36,000  Level Toronto Center
Mon 05:33:37 PM 43.0833 -79.9333 270° West 400 460 36,000  Level Toronto Center
Mon 05:34:37 PM 43.0667 -80.0833 261° West 410 472 36,000  Level Toronto Center
Mon 05:35:37 PM 43.0667 -80.2500 268° West 410 472 36,000  Level Toronto Center
Mon 05:36:00 PM 43.0615 -80.2676 268° West  Level FlightAware Approximate
Mon 05:36:37 PM 43.0667 -80.3833 270° West 410 472 36,000  Level Toronto Center
Mon 05:37:37 PM 43.0500 -80.5500 262° West 410 472 36,000  Level Toronto Center
Mon 05:38:37 PM 43.0500 -80.7000 270° West 410 472 36,000  Level Toronto Center
Mon 05:39:37 PM 43.0333 -80.8667 262° West 410 472 36,000  Level Toronto Center
Mon 05:40:37 PM 43.0167 -81.0000 260° West 410 472 36,000  Level Toronto Center
Mon 05:41:37 PM 43.0167 -81.1667 270° West 400 460 36,000 -33 Level Toronto Center
Mon 05:43:37 PM 43.0167 -81.4500 270° West 390 449 35,900 -367 Descending Toronto Center
Mon 05:44:37 PM 43.0167 -81.6000 270° West 390 449 34,900 -950 Descending Toronto Center
Mon 05:45:37 PM 43.0500 -81.7500 287° West 390 449 34,000 -450 Descending Toronto Center
Mon 05:46:37 PM 43.1167 -81.8667 308° West 400 460 34,000  Level Toronto Center
Mon 05:47:37 PM 43.1167 -82.0333 270° West 400 460 34,000  Level Toronto Center
Mon 05:48:37 PM 43.1167 -82.1667 270° West 400 460 34,000  Level Toronto Center
Mon 05:49:37 PM 43.1000 -82.3333 262° West 400 460 34,000  Level Toronto Center
Mon 05:50:37 PM 43.0833 -82.4833 261° West 400 460 34,000  Level Toronto Center
Mon 05:51:37 PM 43.0833 -82.6167 270° West 400 460 34,000  Level Toronto Center
Mon 05:52:37 PM 43.0500 -82.7833 255° West 400 460 34,000  Level Toronto Center
Mon 05:53:37 PM 43.0333 -82.9333 261° West 400 460 34,000  Level Toronto Center
Mon 05:54:46 PM 43.0350 -83.1028 271° West 406 467 34,000 -279 Level Cleveland Center
Mon 05:55:46 PM 43.0194 -83.2439 261° West 406 467 33,400 -800 Descending Cleveland Center
Mon 05:56:46 PM 42.9850 -83.3786 251° West 396 456 32,400 -700 Descending Cleveland Center
Mon 05:57:46 PM 42.9008 -83.4883 224° Southwest 371 427 32,000 -200 Descending Cleveland Center
Mon 05:58:46 PM 42.8094 -83.5578 209° Southwest 378 435 32,000  Level Cleveland Center
Mon 05:59:46 PM 42.7931 -83.7014 261° West 377 434 32,000  Level Cleveland Center
Mon 06:00:46 PM 42.8097 -83.8522 279° West 372 428 32,000  Level Cleveland Center
Mon 06:01:46 PM 42.8264 -84.0031 279° West 390 449 32,000  Level Cleveland Center
Mon 06:02:46 PM 42.8403 -84.1569 277° West 403 464 32,000  Level Cleveland Center
Mon 06:03:46 PM 42.8436 -84.3156 272° West 415 478 32,000  Level Cleveland Center
Mon 06:04:46 PM 42.8367 -84.4653 266° West 410 472 32,000  Level Cleveland Center
Mon 06:05:46 PM 42.8294 -84.6178 266° West 405 466 32,000  Level Cleveland Center
Mon 06:06:39 PM 42.8247 -84.7425 267° West 404 465 32,000  Level Chicago Center
Mon 06:07:41 PM 42.8158 -84.9225 266° West 399 459 32,000  Level Chicago Center
Mon 06:08:44 PM 42.8089 -85.0747 266° West 402 463 32,000  Level Chicago Center
Mon 06:09:46 PM 42.8008 -85.2297 266° West 408 470 32,000  Level Chicago Center
Mon 06:10:48 PM 42.7925 -85.3836 266° West 409 471 32,000  Level Chicago Center
Mon 06:11:50 PM 42.7803 -85.5344 264° West 404 465 32,000 -677 Level Chicago Center
Mon 06:12:52 PM 42.7525 -85.6864 256° West 410 472 30,600 -2,177 Descending Chicago Center
Mon 06:13:54 PM 42.7256 -85.8372 256° West 408 470 27,500 -3,194 Descending Chicago Center
Mon 06:14:56 PM 42.6922 -86.0167 256° West 405 466 24,000 -3,242 Descending Chicago Center
Mon 06:15:58 PM 42.6681 -86.1578 257° West 388 447 20,800 -1,935 Descending Chicago Center
Mon 06:17:00 PM 42.6428 -86.2911 256° West 368 423 20,000 -581 Descending Chicago Center
Mon 06:18:02 PM 42.6164 -86.4253 255° West 366 421 19,600 -1,344 Descending Chicago Center
Mon 06:19:05 PM 42.5919 -86.5589 256° West 365 420 17,200 -2,304 Descending Chicago Center
Mon 06:20:07 PM 42.5683 -86.6850 256° West 349 402 14,800 -1,790 Descending Chicago Center
Mon 06:21:09 PM 42.5375 -86.8150 252° West 303 349 13,500 -1,210 Descending Chicago Center
Mon 06:22:11 PM 42.5111 -86.9086 249° West 271 312 12,300 -677 Descending Chicago Center
Mon 06:23:13 PM 42.4858 -87.0053 251° West 273 314 12,100 -629 Descending Chicago Center
Mon 06:24:15 PM 42.4583 -87.0992 248° West 269 310 11,000 -1,016 Descending Chicago Center
Mon 06:25:17 PM 42.4328 -87.1908 249° West 263 303 10,000 -968 Descending Chicago Center
Mon 06:26:19 PM 42.4072 -87.2825 249° West 263 303 9,000 -1,016 Descending Chicago Center
Mon 06:27:21 PM 42.3717 -87.3889 246° West 261 300 7,900 -919 Descending Chicago Center
Mon 06:28:23 PM 42.3408 -87.4775 245° Southwest 260 299 7,100 -435 Descending Chicago Center
Mon 06:29:25 PM 42.3025 -87.5647 239° Southwest 259 298 7,000 -97 Descending Chicago Center
Mon 06:30:27 PM 42.2431 -87.6219 215° Southwest 263 303 6,900 -532 Descending Chicago Center
Mon 06:31:29 PM 42.1964 -87.6789 222° Southwest 229 264 5,900 -1,104 Descending Chicago Center
Mon 06:32:32 PM 42.1503 -87.7267 218° Southwest 212 244 4,600 -1,322 Descending Chicago Center
Mon 06:33:27 PM 42.1000 -87.7833 220° Southwest 212 244 3,300 -1,418 Descending Chicago TRACON

Login

Don't have an account? Register now (free) for customized features, flight alerts, and more!